sensor_id;sensor_type;location;lat;lon;timestamp;pressure;altitude;pressure_sealevel;temperature;humidity
37852;BME280;23691;52.486;4.650;2023-12-07T00:01:19;101972.66;;;3.42;73.22
37852;BME280;23691;52.486;4.650;2023-12-07T00:03:45;101974.53;;;3.40;73.11
37852;BME280;23691;52.486;4.650;2023-12-07T00:06:10;101973.00;;;3.36;73.00
37852;BME280;23691;52.486;4.650;2023-12-07T00:08:38;101974.81;;;3.36;72.90
37852;BME280;23691;52.486;4.650;2023-12-07T00:11:03;101968.75;;;3.34;72.87
37852;BME280;23691;52.486;4.650;2023-12-07T00:13:29;101968.50;;;3.38;72.87
37852;BME280;23691;52.486;4.650;2023-12-07T00:15:56;101967.63;;;3.38;72.74
37852;BME280;23691;52.486;4.650;2023-12-07T00:18:22;101969.44;;;3.37;72.71
37852;BME280;23691;52.486;4.650;2023-12-07T00:20:48;101972.16;;;3.36;72.78
37852;BME280;23691;52.486;4.650;2023-12-07T00:23:13;101971.31;;;3.35;72.96
37852;BME280;23691;52.486;4.650;2023-12-07T00:25:39;101971.31;;;3.35;72.84
37852;BME280;23691;52.486;4.650;2023-12-07T00:28:04;101970.56;;;3.33;73.07
37852;BME280;23691;52.486;4.650;2023-12-07T00:30:30;101962.69;;;3.32;72.79
37852;BME280;23691;52.486;4.650;2023-12-07T00:32:59;101966.28;;;3.31;72.82
37852;BME280;23691;52.486;4.650;2023-12-07T00:35:24;101969.22;;;3.26;72.75
37852;BME280;23691;52.486;4.650;2023-12-07T00:37:52;101974.56;;;3.25;73.19
37852;BME280;23691;52.486;4.650;2023-12-07T00:40:17;101979.00;;;3.24;73.22
37852;BME280;23691;52.486;4.650;2023-12-07T00:42:43;101970.16;;;3.25;72.86
37852;BME280;23691;52.486;4.650;2023-12-07T00:45:11;101969.28;;;3.25;73.17
37852;BME280;23691;52.486;4.650;2023-12-07T00:47:38;101967.50;;;3.25;73.19
37852;BME280;23691;52.486;4.650;2023-12-07T00:50:04;101969.28;;;3.25;72.80
37852;BME280;23691;52.486;4.650;2023-12-07T00:52:29;101972.97;;;3.22;73.18
37852;BME280;23691;52.486;4.650;2023-12-07T00:54:55;101973.84;;;3.22;72.90
37852;BME280;23691;52.486;4.650;2023-12-07T00:57:27;101978.25;;;3.22;73.11
37852;BME280;23691;52.486;4.650;2023-12-07T00:59:52;101976.56;;;3.21;72.90
37852;BME280;23691;52.486;4.650;2023-12-07T01:02:17;101977.59;;;3.18;72.87
37852;BME280;23691;52.486;4.650;2023-12-07T01:04:43;101972.38;;;3.17;73.14
37852;BME280;23691;52.486;4.650;2023-12-07T01:07:09;101971.59;;;3.15;73.23
37852;BME280;23691;52.486;4.650;2023-12-07T01:09:34;101974.38;;;3.13;73.41
37852;BME280;23691;52.486;4.650;2023-12-07T01:12:01;101971.78;;;3.12;73.31
37852;BME280;23691;52.486;4.650;2023-12-07T01:14:29;101977.09;;;3.12;73.37
37852;BME280;23691;52.486;4.650;2023-12-07T01:16:54;101974.44;;;3.12;73.30
37852;BME280;23691;52.486;4.650;2023-12-07T01:19:23;101966.63;;;3.10;73.11
37852;BME280;23691;52.486;4.650;2023-12-07T01:21:48;101972.75;;;3.11;73.30
37852;BME280;23691;52.486;4.650;2023-12-07T01:24:13;101968.50;;;3.08;73.32
37852;BME280;23691;52.486;4.650;2023-12-07T01:26:38;101970.28;;;3.08;72.95
37852;BME280;23691;52.486;4.650;2023-12-07T01:29:04;101969.34;;;3.09;73.32
37852;BME280;23691;52.486;4.650;2023-12-07T01:31:29;101975.56;;;3.08;72.88
37852;BME280;23691;52.486;4.650;2023-12-07T01:33:55;101970.28;;;3.08;73.35
37852;BME280;23691;52.486;4.650;2023-12-07T01:36:20;101969.41;;;3.07;73.13
37852;BME280;23691;52.486;4.650;2023-12-07T01:38:45;101965.06;;;3.06;73.17
37852;BME280;23691;52.486;4.650;2023-12-07T01:41:11;101962.44;;;3.06;72.84
37852;BME280;23691;52.486;4.650;2023-12-07T01:43:36;101974.81;;;3.06;73.02
37852;BME280;23691;52.486;4.650;2023-12-07T01:46:01;101981.97;;;3.04;73.36
37852;BME280;23691;52.486;4.650;2023-12-07T01:48:28;101974.88;;;3.04;73.29
37852;BME280;23691;52.486;4.650;2023-12-07T01:50:55;101982.81;;;3.04;73.08
37852;BME280;23691;52.486;4.650;2023-12-07T01:53:23;101979.31;;;3.04;73.39
37852;BME280;23691;52.486;4.650;2023-12-07T01:55:48;101979.41;;;3.02;72.91
37852;BME280;23691;52.486;4.650;2023-12-07T01:58:15;101978.56;;;3.01;73.08
37852;BME280;23691;52.486;4.650;2023-12-07T02:00:45;101981.19;;;3.01;73.11
37852;BME280;23691;52.486;4.650;2023-12-07T02:03:16;101968.81;;;3.02;73.38
37852;BME280;23691;52.486;4.650;2023-12-07T02:05:42;101973.09;;;3.05;73.24
37852;BME280;23691;52.486;4.650;2023-12-07T02:08:08;101978.56;;;3.01;72.99
37852;BME280;23691;52.486;4.650;2023-12-07T02:10:33;101959.22;;;3.01;73.05
37852;BME280;23691;52.486;4.650;2023-12-07T02:12:58;101964.38;;;3.03;72.86
37852;BME280;23691;52.486;4.650;2023-12-07T02:15:26;101960.03;;;3.01;72.87
37852;BME280;23691;52.486;4.650;2023-12-07T02:22:52;101961.16;;;2.97;73.34
37852;BME280;23691;52.486;4.650;2023-12-07T02:25:20;101974.31;;;2.99;73.16
37852;BME280;23691;52.486;4.650;2023-12-07T02:27:48;101973.44;;;2.98;73.43
37852;BME280;23691;52.486;4.650;2023-12-07T02:30:13;101962.03;;;2.98;73.14
37852;BME280;23691;52.486;4.650;2023-12-07T02:32:40;101962.88;;;2.98;73.25
37852;BME280;23691;52.486;4.650;2023-12-07T02:35:07;101974.31;;;2.99;73.58
37852;BME280;23691;52.486;4.650;2023-12-07T02:37:35;101961.09;;;2.99;73.53
37852;BME280;23691;52.486;4.650;2023-12-07T02:40:03;101976.00;;;3.00;73.52
37852;BME280;23691;52.486;4.650;2023-12-07T02:42:30;101979.50;;;3.00;73.37
37852;BME280;23691;52.486;4.650;2023-12-07T02:44:57;101983.00;;;3.01;73.65
37852;BME280;23691;52.486;4.650;2023-12-07T02:47:25;101976.75;;;3.02;73.70
37852;BME280;23691;52.486;4.650;2023-12-07T02:49:51;101969.59;;;3.04;73.65
37852;BME280;23691;52.486;4.650;2023-12-07T02:52:19;101977.59;;;3.03;73.65
37852;BME280;23691;52.486;4.650;2023-12-07T02:54:45;101980.25;;;3.03;73.59
37852;BME280;23691;52.486;4.650;2023-12-07T02:57:10;101970.44;;;3.05;73.24
37852;BME280;23691;52.486;4.650;2023-12-07T02:59:35;101976.16;;;3.13;73.04
37852;BME280;23691;52.486;4.650;2023-12-07T03:02:01;101971.47;;;3.02;73.43
37852;BME280;23691;52.486;4.650;2023-12-07T03:04:26;101963.66;;;3.00;73.27
37852;BME280;23691;52.486;4.650;2023-12-07T03:06:51;101968.06;;;3.00;73.31
37852;BME280;23691;52.486;4.650;2023-12-07T03:09:17;101978.63;;;3.00;73.21
37852;BME280;23691;52.486;4.650;2023-12-07T03:11:42;101982.31;;;2.97;73.43
37852;BME280;23691;52.486;4.650;2023-12-07T03:14:07;101976.16;;;2.97;73.63
37852;BME280;23691;52.486;4.650;2023-12-07T03:16:32;101977.00;;;2.97;73.64
37852;BME280;23691;52.486;4.650;2023-12-07T03:19:00;101980.78;;;2.93;73.75
37852;BME280;23691;52.486;4.650;2023-12-07T03:21:26;101983.25;;;2.96;73.46
37852;BME280;23691;52.486;4.650;2023-12-07T03:23:52;101975.31;;;2.96;73.42
37852;BME280;23691;52.486;4.650;2023-12-07T03:26:19;101978.94;;;2.95;73.57
37852;BME280;23691;52.486;4.650;2023-12-07T03:28:45;101973.63;;;2.95;73.84
37852;BME280;23691;52.486;4.650;2023-12-07T03:31:10;101979.84;;;2.94;73.82
37852;BME280;23691;52.486;4.650;2023-12-07T03:33:35;101982.50;;;2.94;73.46
37852;BME280;23691;52.486;4.650;2023-12-07T03:36:01;101975.50;;;2.93;73.55
37852;BME280;23691;52.486;4.650;2023-12-07T03:38:27;101971.16;;;2.92;73.62
37852;BME280;23691;52.486;4.650;2023-12-07T03:40:52;101987.13;;;2.91;73.73
37852;BME280;23691;52.486;4.650;2023-12-07T03:43:18;101981.81;;;2.91;73.73
37852;BME280;23691;52.486;4.650;2023-12-07T03:45:44;101972.16;;;2.90;73.54
37852;BME280;23691;52.486;4.650;2023-12-07T03:48:09;101965.19;;;2.89;73.87
37852;BME280;23691;52.486;4.650;2023-12-07T03:50:35;101962.63;;;2.87;73.54
37852;BME280;23691;52.486;4.650;2023-12-07T03:53:00;101961.78;;;2.87;73.51
37852;BME280;23691;52.486;4.650;2023-12-07T03:55:25;101960.16;;;2.84;73.60
37852;BME280;23691;52.486;4.650;2023-12-07T03:57:51;101956.69;;;2.84;73.49
37852;BME280;23691;52.486;4.650;2023-12-07T04:00:16;101950.53;;;2.83;73.54
37852;BME280;23691;52.486;4.650;2023-12-07T04:02:47;101958.56;;;2.82;73.78
37852;BME280;23691;52.486;4.650;2023-12-07T04:05:15;101957.59;;;2.83;73.25
37852;BME280;23691;52.486;4.650;2023-12-07T04:07:41;101958.63;;;2.80;73.33
37852;BME280;23691;52.486;4.650;2023-12-07T04:10:09;101950.81;;;2.78;73.39
37852;BME280;23691;52.486;4.650;2023-12-07T04:12:35;101958.81;;;2.77;73.36
37852;BME280;23691;52.486;4.650;2023-12-07T04:15:03;101954.38;;;2.77;73.75
37852;BME280;23691;52.486;4.650;2023-12-07T04:17:29;101956.22;;;2.75;73.34
37852;BME280;23691;52.486;4.650;2023-12-07T04:19:54;101956.22;;;2.75;73.54
37852;BME280;23691;52.486;4.650;2023-12-07T04:22:20;101960.69;;;2.75;73.20
37852;BME280;23691;52.486;4.650;2023-12-07T04:24:48;101954.63;;;2.73;73.58
37852;BME280;23691;52.486;4.650;2023-12-07T04:27:16;101953.69;;;2.74;73.64
37852;BME280;23691;52.486;4.650;2023-12-07T04:29:41;101959.91;;;2.73;73.54
37852;BME280;23691;52.486;4.650;2023-12-07T04:32:07;101952.75;;;2.75;73.35
37852;BME280;23691;52.486;4.650;2023-12-07T04:34:36;101954.53;;;2.74;73.23
37852;BME280;23691;52.486;4.650;2023-12-07T04:37:01;101943.97;;;2.74;73.63
37852;BME280;23691;52.486;4.650;2023-12-07T04:39:29;101950.94;;;2.75;73.67
37852;BME280;23691;52.486;4.650;2023-12-07T04:41:55;101956.22;;;2.75;73.74
37852;BME280;23691;52.486;4.650;2023-12-07T04:44:20;101960.59;;;2.76;73.89
37852;BME280;23691;52.486;4.650;2023-12-07T04:46:46;101957.84;;;2.78;73.75
37852;BME280;23691;52.486;4.650;2023-12-07T04:49:11;101952.66;;;2.76;73.99
37852;BME280;23691;52.486;4.650;2023-12-07T04:51:36;101962.41;;;2.76;73.98
37852;BME280;23691;52.486;4.650;2023-12-07T04:54:02;101957.97;;;2.76;73.87
37852;BME280;23691;52.486;4.650;2023-12-07T04:56:30;101965.78;;;2.78;74.11
37852;BME280;23691;52.486;4.650;2023-12-07T04:58:56;101957.78;;;2.79;73.99
37852;BME280;23691;52.486;4.650;2023-12-07T05:01:21;101952.16;;;2.86;74.22
37852;BME280;23691;52.486;4.650;2023-12-07T05:03:47;101953.78;;;2.88;74.17
37852;BME280;23691;52.486;4.650;2023-12-07T05:06:12;101947.59;;;2.88;74.32
37852;BME280;23691;52.486;4.650;2023-12-07T05:08:39;101959.22;;;2.85;74.25
37852;BME280;23691;52.486;4.650;2023-12-07T05:11:04;101955.47;;;2.89;74.23
37852;BME280;23691;52.486;4.650;2023-12-07T05:13:32;101951.03;;;2.90;74.33
37852;BME280;23691;52.486;4.650;2023-12-07T05:15:59;101943.09;;;2.90;74.50
37852;BME280;23691;52.486;4.650;2023-12-07T05:18:24;101937.72;;;2.91;74.29
37852;BME280;23691;52.486;4.650;2023-12-07T05:20:50;101939.53;;;2.91;74.24
37852;BME280;23691;52.486;4.650;2023-12-07T05:23:15;101942.16;;;2.91;74.70
37852;BME280;23691;52.486;4.650;2023-12-07T05:25:40;101940.38;;;2.91;74.68
37852;BME280;23691;52.486;4.650;2023-12-07T05:28:08;101934.25;;;2.91;74.79
37852;BME280;23691;52.486;4.650;2023-12-07T05:30:36;101934.13;;;2.92;74.39
37852;BME280;23691;52.486;4.650;2023-12-07T05:33:04;101929.97;;;2.88;74.87
37852;BME280;23691;52.486;4.650;2023-12-07T05:35:29;101932.63;;;2.88;75.02
37852;BME280;23691;52.486;4.650;2023-12-07T05:37:55;101941.91;;;2.95;74.60
37852;BME280;23691;52.486;4.650;2023-12-07T05:40:20;101939.09;;;2.98;74.40
37852;BME280;23691;52.486;4.650;2023-12-07T05:42:48;101937.22;;;3.00;74.72
37852;BME280;23691;52.486;4.650;2023-12-07T05:45:14;101936.25;;;3.01;74.52
37852;BME280;23691;52.486;4.650;2023-12-07T05:47:39;101939.66;;;3.04;74.75
37852;BME280;23691;52.486;4.650;2023-12-07T05:50:07;101936.91;;;3.05;74.41
37852;BME280;23691;52.486;4.650;2023-12-07T05:52:35;101936.75;;;3.08;74.54
37852;BME280;23691;52.486;4.650;2023-12-07T05:55:01;101935.81;;;3.09;74.57
37852;BME280;23691;52.486;4.650;2023-12-07T05:57:26;101924.31;;;3.10;74.80
37852;BME280;23691;52.486;4.650;2023-12-07T05:59:51;101926.84;;;3.12;74.70
37852;BME280;23691;52.486;4.650;2023-12-07T06:02:17;101931.22;;;3.13;74.69
37852;BME280;23691;52.486;4.650;2023-12-07T06:04:42;101931.03;;;3.16;74.90
37852;BME280;23691;52.486;4.650;2023-12-07T06:07:07;101942.38;;;3.18;74.82
37852;BME280;23691;52.486;4.650;2023-12-07T06:09:33;101934.31;;;3.19;74.74
37852;BME280;23691;52.486;4.650;2023-12-07T06:11:59;101947.47;;;3.21;74.87
37852;BME280;23691;52.486;4.650;2023-12-07T06:14:24;101957.34;;;3.17;75.10
37852;BME280;23691;52.486;4.650;2023-12-07T06:16:53;101948.56;;;3.17;75.35
37852;BME280;23691;52.486;4.650;2023-12-07T06:19:18;101945.94;;;3.17;75.26
37852;BME280;23691;52.486;4.650;2023-12-07T06:21:43;101943.28;;;3.17;75.46
37852;BME280;23691;52.486;4.650;2023-12-07T06:24:09;101942.38;;;3.18;75.21
37852;BME280;23691;52.486;4.650;2023-12-07T06:26:35;101937.06;;;3.18;75.38
37852;BME280;23691;52.486;4.650;2023-12-07T06:29:00;101934.44;;;3.18;75.58
37852;BME280;23691;52.486;4.650;2023-12-07T06:31:36;101925.63;;;3.17;75.26
37852;BME280;23691;52.486;4.650;2023-12-07T06:34:01;101933.56;;;3.17;75.65
37852;BME280;23691;52.486;4.650;2023-12-07T06:36:27;101928.44;;;3.14;75.61
37852;BME280;23691;52.486;4.650;2023-12-07T06:38:53;101930.19;;;3.15;75.40
37852;BME280;23691;52.486;4.650;2023-12-07T06:41:20;101934.59;;;3.15;75.72
37852;BME280;23691;52.486;4.650;2023-12-07T06:43:45;101932.97;;;3.12;75.32
37852;BME280;23691;52.486;4.650;2023-12-07T06:46:11;101926.00;;;3.11;75.57
37852;BME280;23691;52.486;4.650;2023-12-07T06:48:41;101922.59;;;3.09;75.93
37852;BME280;23691;52.486;4.650;2023-12-07T06:51:09;101923.44;;;3.10;75.95
37852;BME280;23691;52.486;4.650;2023-12-07T06:53:35;101927.03;;;3.09;75.71
37852;BME280;23691;52.486;4.650;2023-12-07T06:56:03;101920.03;;;3.08;75.87
37852;BME280;23691;52.486;4.650;2023-12-07T06:58:37;101927.97;;;3.08;75.89
37852;BME280;23691;52.486;4.650;2023-12-07T07:01:03;101930.63;;;3.08;75.72
37852;BME280;23691;52.486;4.650;2023-12-07T07:03:28;101930.63;;;3.08;75.63
37852;BME280;23691;52.486;4.650;2023-12-07T07:08:29;101941.28;;;3.06;75.83
37852;BME280;23691;52.486;4.650;2023-12-07T07:10:55;101934.19;;;3.07;75.72
37852;BME280;23691;52.486;4.650;2023-12-07T07:13:27;101938.63;;;3.06;75.92
37852;BME280;23691;52.486;4.650;2023-12-07T07:15:56;101930.69;;;3.06;76.07
37852;BME280;23691;52.486;4.650;2023-12-07T07:18:21;101927.88;;;3.09;75.57
37852;BME280;23691;52.486;4.650;2023-12-07T07:20:58;101927.78;;;3.11;75.70
37852;BME280;23691;52.486;4.650;2023-12-07T07:23:26;101933.94;;;3.11;75.48
37852;BME280;23691;52.486;4.650;2023-12-07T07:25:51;101930.44;;;3.11;75.59
37852;BME280;23691;52.486;4.650;2023-12-07T07:28:17;101938.38;;;3.11;75.55
37852;BME280;23691;52.486;4.650;2023-12-07T07:30:48;101930.63;;;3.08;75.50
37852;BME280;23691;52.486;4.650;2023-12-07T07:33:18;101932.41;;;3.07;75.50
37852;BME280;23691;52.486;4.650;2023-12-07T07:35:43;101925.34;;;3.08;75.87
37852;BME280;23691;52.486;4.650;2023-12-07T07:38:11;101927.22;;;3.06;75.80
37852;BME280;23691;52.486;4.650;2023-12-07T07:40:42;101932.50;;;3.06;75.48
37852;BME280;23691;52.486;4.650;2023-12-07T07:43:10;101936.91;;;3.05;75.72
37852;BME280;23691;52.486;4.650;2023-12-07T07:45:36;101940.44;;;3.06;75.70
37852;BME280;23691;52.486;4.650;2023-12-07T07:48:02;101938.81;;;3.03;75.60
37852;BME280;23691;52.486;4.650;2023-12-07T07:50:27;101937.09;;;3.02;75.48
37852;BME280;23691;52.486;4.650;2023-12-07T07:53:02;101937.09;;;3.02;75.50
37852;BME280;23691;52.486;4.650;2023-12-07T07:55:29;101944.19;;;3.01;75.25
37852;BME280;23691;52.486;4.650;2023-12-07T07:57:57;101941.53;;;3.01;75.66
37852;BME280;23691;52.486;4.650;2023-12-07T08:00:25;101936.25;;;3.01;75.16
37852;BME280;23691;52.486;4.650;2023-12-07T08:03:04;101931.91;;;3.00;75.44
37852;BME280;23691;52.486;4.650;2023-12-07T08:05:32;101932.94;;;2.98;75.27
37852;BME280;23691;52.486;4.650;2023-12-07T08:07:58;101932.19;;;2.96;75.15
37852;BME280;23691;52.486;4.650;2023-12-07T08:10:23;101929.53;;;2.96;75.21
37852;BME280;23691;52.486;4.650;2023-12-07T08:12:51;101937.53;;;2.94;75.04
37852;BME280;23691;52.486;4.650;2023-12-07T08:15:16;101939.25;;;2.95;75.10
37852;BME280;23691;52.486;4.650;2023-12-07T08:17:42;101940.25;;;2.93;75.29
37852;BME280;23691;52.486;4.650;2023-12-07T08:20:07;101939.34;;;2.94;75.32
37852;BME280;23691;52.486;4.650;2023-12-07T08:22:34;101937.34;;;2.97;75.09
37852;BME280;23691;52.486;4.650;2023-12-07T08:24:59;101929.44;;;2.97;75.15
37852;BME280;23691;52.486;4.650;2023-12-07T08:27:25;101940.69;;;3.01;75.01
37852;BME280;23691;52.486;4.650;2023-12-07T08:29:50;101948.53;;;3.03;74.43
37852;BME280;23691;52.486;4.650;2023-12-07T08:32:15;101943.16;;;3.04;74.63
37852;BME280;23691;52.486;4.650;2023-12-07T08:34:43;101944.94;;;3.04;74.50
37852;BME280;23691;52.486;4.650;2023-12-07T08:37:09;101940.44;;;3.06;74.59
37852;BME280;23691;52.486;4.650;2023-12-07T08:39:34;101938.56;;;3.08;74.41
37852;BME280;23691;52.486;4.650;2023-12-07T08:41:59;101941.00;;;3.11;74.81
37852;BME280;23691;52.486;4.650;2023-12-07T08:44:26;101922.41;;;3.12;74.77
37852;BME280;23691;52.486;4.650;2023-12-07T08:46:51;101923.09;;;3.16;74.78
37852;BME280;23691;52.486;4.650;2023-12-07T08:49:17;101926.50;;;3.18;74.75
37852;BME280;23691;52.486;4.650;2023-12-07T08:51:42;101929.16;;;3.18;74.60
37852;BME280;23691;52.486;4.650;2023-12-07T08:54:07;101924.69;;;3.18;74.64
37852;BME280;23691;52.486;4.650;2023-12-07T08:56:33;101912.41;;;3.17;74.27
37852;BME280;23691;52.486;4.650;2023-12-07T08:59:19;101916.38;;;3.25;74.48
37852;BME280;23691;52.486;4.650;2023-12-07T09:01:51;101911.97;;;3.25;74.43
37852;BME280;23691;52.486;4.650;2023-12-07T09:04:16;101906.69;;;3.25;74.58
37852;BME280;23691;52.486;4.650;2023-12-07T09:06:42;101905.47;;;3.31;74.10
37852;BME280;23691;52.486;4.650;2023-12-07T09:09:07;101908.28;;;3.28;74.16
37852;BME280;23691;52.486;4.650;2023-12-07T09:11:33;101901.00;;;3.31;74.17
37852;BME280;23691;52.486;4.650;2023-12-07T09:21:11;101908.28;;;3.28;74.22
37852;BME280;23691;52.486;4.650;2023-12-07T09:23:41;101907.34;;;3.29;74.26
37852;BME280;23691;52.486;4.650;2023-12-07T09:26:06;101909.13;;;3.28;74.39
37852;BME280;23691;52.486;4.650;2023-12-07T09:28:33;101909.97;;;3.29;74.20
37852;BME280;23691;52.486;4.650;2023-12-07T09:30:58;101912.63;;;3.29;73.93
37852;BME280;23691;52.486;4.650;2023-12-07T09:33:24;101922.16;;;3.31;73.90
37852;BME280;23691;52.486;4.650;2023-12-07T09:35:49;101922.94;;;3.33;74.07
37852;BME280;23691;52.486;4.650;2023-12-07T09:38:15;101915.84;;;3.34;74.17
37852;BME280;23691;52.486;4.650;2023-12-07T09:40:40;101915.66;;;3.37;73.79
37852;BME280;23691;52.486;4.650;2023-12-07T09:43:05;101915.66;;;3.37;74.14
37852;BME280;23691;52.486;4.650;2023-12-07T09:45:31;101919.91;;;3.39;74.04
37852;BME280;23691;52.486;4.650;2023-12-07T09:47:56;101907.38;;;3.43;74.25
37852;BME280;23691;52.486;4.650;2023-12-07T09:50:22;101905.66;;;3.42;74.12
37852;BME280;23691;52.486;4.650;2023-12-07T09:52:48;101907.25;;;3.44;74.19
37852;BME280;23691;52.486;4.650;2023-12-07T09:55:15;101901.88;;;3.46;74.22
37852;BME280;23691;52.486;4.650;2023-12-07T10:00:59;101905.09;;;3.51;74.15
37852;BME280;23691;52.486;4.650;2023-12-07T10:03:24;101903.28;;;3.52;73.83
37852;BME280;23691;52.486;4.650;2023-12-07T10:05:53;101895.19;;;3.55;74.18
37852;BME280;23691;52.486;4.650;2023-12-07T10:08:25;101896.81;;;3.57;74.20
37852;BME280;23691;52.486;4.650;2023-12-07T10:10:53;101893.97;;;3.60;73.87
37852;BME280;23691;52.486;4.650;2023-12-07T10:13:26;101895.50;;;3.64;73.71
37852;BME280;23691;52.486;4.650;2023-12-07T10:16:04;101883.19;;;3.63;74.04
37852;BME280;23691;52.486;4.650;2023-12-07T10:18:31;101876.97;;;3.64;74.05
37852;BME280;23691;52.486;4.650;2023-12-07T10:20:56;101873.34;;;3.65;74.03
37852;BME280;23691;52.486;4.650;2023-12-07T10:23:21;101869.66;;;3.68;73.60
37852;BME280;23691;52.486;4.650;2023-12-07T10:25:50;101861.72;;;3.68;73.67
37852;BME280;23691;52.486;4.650;2023-12-07T10:28:15;101850.03;;;3.72;73.64
37852;BME280;23691;52.486;4.650;2023-12-07T10:30:44;101851.63;;;3.75;73.63
37852;BME280;23691;52.486;4.650;2023-12-07T10:33:10;101843.56;;;3.76;73.61
37852;BME280;23691;52.486;4.650;2023-12-07T10:35:38;101845.09;;;3.80;73.95
37852;BME280;23691;52.486;4.650;2023-12-07T10:38:09;101848.50;;;3.82;74.01
37852;BME280;23691;52.486;4.650;2023-12-07T10:40:35;101845.84;;;3.82;73.99
37852;BME280;23691;52.486;4.650;2023-12-07T10:43:01;101852.75;;;3.85;73.92
37852;BME280;23691;52.486;4.650;2023-12-07T10:45:30;101846.41;;;3.87;73.87
37852;BME280;23691;52.486;4.650;2023-12-07T10:48:02;101845.44;;;3.88;73.78
37852;BME280;23691;52.486;4.650;2023-12-07T10:50:34;101842.06;;;3.86;73.82
37852;BME280;23691;52.486;4.650;2023-12-07T10:53:03;101843.00;;;3.85;73.82
37852;BME280;23691;52.486;4.650;2023-12-07T10:55:29;101843.00;;;3.85;73.71
37852;BME280;23691;52.486;4.650;2023-12-07T10:58:03;101838.47;;;3.87;73.81
37852;BME280;23691;52.486;4.650;2023-12-07T11:00:36;101832.03;;;3.92;73.61
37852;BME280;23691;52.486;4.650;2023-12-07T11:03:06;101827.09;;;4.00;73.50
37852;BME280;23691;52.486;4.650;2023-12-07T11:05:33;101832.94;;;4.05;73.27
37852;BME280;23691;52.486;4.650;2023-12-07T11:08:01;101823.19;;;4.05;73.53
37852;BME280;23691;52.486;4.650;2023-12-07T11:15:42;101805.41;;;4.07;73.12
37852;BME280;23691;52.486;4.650;2023-12-07T11:18:08;101801.91;;;4.07;72.82
37852;BME280;23691;52.486;4.650;2023-12-07T11:23:01;101791.22;;;4.08;73.13
37852;BME280;23691;52.486;4.650;2023-12-07T11:25:29;101777.03;;;4.09;73.26
37852;BME280;23691;52.486;4.650;2023-12-07T11:28:01;101763.50;;;4.14;73.00
37852;BME280;23691;52.486;4.650;2023-12-07T11:30:27;101766.91;;;4.16;73.11
37852;BME280;23691;52.486;4.650;2023-12-07T11:32:53;101769.03;;;4.24;72.77
37852;BME280;23691;52.486;4.650;2023-12-07T11:35:22;101764.59;;;4.24;72.94
37852;BME280;23691;52.486;4.650;2023-12-07T11:38:03;101774.13;;;4.27;73.09
37852;BME280;23691;52.486;4.650;2023-12-07T11:40:31;101766.94;;;4.29;72.97
37852;BME280;23691;52.486;4.650;2023-12-07T11:42:58;101768.84;;;4.27;73.11
37852;BME280;23691;52.486;4.650;2023-12-07T11:45:47;101770.72;;;4.25;73.05
37852;BME280;23691;52.486;4.650;2023-12-07T11:48:14;101767.25;;;4.24;72.74
37852;BME280;23691;52.486;4.650;2023-12-07T11:50:57;101769.03;;;4.24;72.79
37852;BME280;23691;52.486;4.650;2023-12-07T11:53:23;101775.28;;;4.23;73.06
37852;BME280;23691;52.486;4.650;2023-12-07T11:55:49;101769.13;;;4.22;72.85
37852;BME280;23691;52.486;4.650;2023-12-07T11:58:15;101760.25;;;4.23;72.79
37852;BME280;23691;52.486;4.650;2023-12-07T12:00:41;101749.66;;;4.23;73.13
37852;BME280;23691;52.486;4.650;2023-12-07T12:03:06;101734.59;;;4.24;73.12
37852;BME280;23691;52.486;4.650;2023-12-07T12:05:32;101730.16;;;4.24;73.38
37852;BME280;23691;52.486;4.650;2023-12-07T12:08:05;101734.41;;;4.27;73.02
37852;BME280;23691;52.486;4.650;2023-12-07T12:10:30;101722.84;;;4.28;73.11
37852;BME280;23691;52.486;4.650;2023-12-07T12:13:00;101718.06;;;4.20;73.41
37852;BME280;23691;52.486;4.650;2023-12-07T12:15:33;101712.22;;;4.15;73.47
37852;BME280;23691;52.486;4.650;2023-12-07T12:18:01;101709.34;;;4.18;73.46
37852;BME280;23691;52.486;4.650;2023-12-07T12:20:30;101713.59;;;4.21;73.42
37852;BME280;23691;52.486;4.650;2023-12-07T12:22:57;101704.94;;;4.19;73.35
37852;BME280;23691;52.486;4.650;2023-12-07T12:25:24;101695.38;;;4.16;73.32
37852;BME280;23691;52.486;4.650;2023-12-07T12:28:01;101688.59;;;4.12;73.36
37852;BME280;23691;52.486;4.650;2023-12-07T12:30:30;101683.28;;;4.12;73.55
37852;BME280;23691;52.486;4.650;2023-12-07T12:32:59;101673.53;;;4.13;73.80
37852;BME280;23691;52.486;4.650;2023-12-07T12:35:27;101657.44;;;4.16;73.43
37852;BME280;23691;52.486;4.650;2023-12-07T12:37:53;101651.19;;;4.17;73.89
37852;BME280;23691;52.486;4.650;2023-12-07T12:40:22;101652.56;;;4.22;73.54
37852;BME280;23691;52.486;4.650;2023-12-07T12:42:51;101649.84;;;4.24;73.42
37852;BME280;23691;52.486;4.650;2023-12-07T12:45:18;101646.00;;;4.28;73.83
37852;BME280;23691;52.486;4.650;2023-12-07T12:47:44;101653.97;;;4.28;73.30
37852;BME280;23691;52.486;4.650;2023-12-07T12:50:11;101658.84;;;4.21;73.58
37852;BME280;23691;52.486;4.650;2023-12-07T12:52:37;101651.75;;;4.22;73.99
37852;BME280;23691;52.486;4.650;2023-12-07T12:55:10;101643.78;;;4.22;73.75
37852;BME280;23691;52.486;4.650;2023-12-07T12:57:37;101634.03;;;4.22;73.68
37852;BME280;23691;52.486;4.650;2023-12-07T13:00:03;101634.78;;;4.24;73.99
37852;BME280;23691;52.486;4.650;2023-12-07T13:02:29;101637.22;;;4.27;73.68
37852;BME280;23691;52.486;4.650;2023-12-07T13:04:54;101630.88;;;4.30;73.63
37852;BME280;23691;52.486;4.650;2023-12-07T13:07:21;101627.06;;;4.34;73.72
37852;BME280;23691;52.486;4.650;2023-12-07T13:09:46;101614.88;;;4.32;73.56
37852;BME280;23691;52.486;4.650;2023-12-07T13:12:12;101623.75;;;4.30;73.86
37852;BME280;23691;52.486;4.650;2023-12-07T13:14:37;101623.88;;;4.29;73.63
37852;BME280;23691;52.486;4.650;2023-12-07T13:17:14;101609.88;;;4.27;74.04
37852;BME280;23691;52.486;4.650;2023-12-07T13:19:52;101612.63;;;4.25;73.83
37852;BME280;23691;52.486;4.650;2023-12-07T13:22:19;101605.44;;;4.27;74.21
37852;BME280;23691;52.486;4.650;2023-12-07T13:24:45;101612.31;;;4.17;74.14